Manta Hatice — V7KN2 — position and weather

sailwx.info

Track history (hours):
 
Tides and Currents Weather Stations Pressure Air Temp Water Temp Dewpoint Dewpoint Depression Visibility Wind Speed Wind Dir Waves Ship Positions

Manta Hatice

Last reported at 2018-May-16 21:37 UTC. Time now 2018-May-21 09:13 UTC.
Position N 35°56' W 025°51'.

Length 175 m; draft 9.7 m.

Type: Cargo ship. MMSI: 538006176.

Date/timePositionNaut miles runAvg speedWind from/ knotsBaromVisibWave heightAir tempDewpointWater temp
2018-May-16 21:37N 35°56' W 025°51'113.9
2018-May-16 21:30N 35°57' W 025°50'714.0
2018-May-16 21:00N 36°03' W 025°45'713.9
2018-May-16 20:30N 36°08' W 025°40'714.3
2018-May-16 20:00N 36°14' W 025°34'714.3
2018-May-16 19:30N 36°20' W 025°29'714.4
2018-May-16 19:00N 36°25' W 025°24'714.3
2018-May-16 18:30N 36°31' W 025°18'714.5
2018-May-16 18:00N 36°37' W 025°13'714.3
2018-May-16 17:30N 36°43' W 025°07'714.2
2018-May-16 17:00N 36°48' W 025°02'714.4
2018-May-16 16:30N 36°54' W 024°56'714.2
2018-May-16 16:00N 36°59' W 024°51'714.3
2018-May-16 15:30N 37°04' W 024°45'714.3
2018-May-16 15:00N 37°10' W 024°39'713.8
2018-May-16 14:30N 37°15' W 024°33'713.5
2018-May-16 14:00N 37°20' W 024°27'612.9
2018-May-16 13:31N 37°24' W 024°21'612.6
2018-May-16 13:00N 37°29' W 024°16'612.9
2018-May-16 12:30N 37°34' W 024°10'612.6
2018-May-16 12:01N 37°38' W 024°05'612.8
2018-May-16 11:30N 37°43' W 023°59'713.1
2018-May-16 11:00N 37°48' W 023°53'713.2
2018-May-16 10:30N 37°52' W 023°47'  
2018-May-12 11:50N 49°48' W 003°29'512.3
2018-May-12 11:28N 49°50' W 003°23'612.7
2018-May-12 11:00N 49°53' W 003°15'612.9
2018-May-12 10:30N 49°56' W 003°07'613.0
2018-May-12 10:00N 49°60' W 002°58'712.7
2018-May-12 09:28N 50°02' W 002°48'7710.5
2018-May-12 02:08N 50°23' W 000°52'213.1
2018-May-12 02:00N 50°23' W 000°49'813.3
2018-May-12 01:26N 50°25' W 000°38'713.4
2018-May-12 00:53N 50°27' W 000°27'513.6
2018-May-12 00:30N 50°29' W 000°19'713.4
2018-May-12 00:00N 50°31' W 000°08'713.3
2018-May-11 23:30N 50°32' E 000°02'713.2
2018-May-11 23:00N 50°34' E 000°12'613.0
2018-May-11 22:30N 50°36' E 000°22'612.6
2018-May-11 22:00N 50°38' E 000°31'612.2
2018-May-11 21:30N 50°41' E 000°40'612.2
2018-May-11 21:00N 50°44' E 000°47'611.9
2018-May-11 20:30N 50°47' E 000°55'611.8
2018-May-11 20:00N 50°51' E 001°03'611.8
2018-May-11 19:30N 50°55' E 001°10'612.0
2018-May-11 19:00N 50°59' E 001°17'612.6
2018-May-11 18:30N 51°03' E 001°25'714.2
2018-May-11 18:00N 51°07' E 001°33'714.7
2018-May-11 17:30N 51°12' E 001°42'714.7
2018-May-11 17:00N 51°18' E 001°50'714.6
2018-May-11 16:30N 51°24' E 001°57'714.1
2018-May-11 16:01N 51°29' E 002°03'713.6
2018-May-11 15:30N 51°35' E 002°10'713.3
2018-May-11 15:00N 51°40' E 002°17'612.9
2018-May-11 14:30N 51°45' E 002°23'612.5
2018-May-11 14:00N 51°50' E 002°30'712.2
2018-May-11 13:27N 51°55' E 002°37'711.8
2018-May-11 12:52N 52°00' E 002°44'411.5
2018-May-11 12:29N 52°04' E 002°48'511.4
2018-May-11 12:00N 52°08' E 002°54'611.2
2018-May-11 11:28N 52°13' E 002°60'611.2
2018-May-11 10:56N 52°17' E 003°06'511.4
2018-May-11 10:28N 52°22' E 003°11'611.7
2018-May-11 09:58N 52°26' E 003°17'611.9
2018-May-11 09:29N 52°31' E 003°23'612.4
2018-May-11 09:00N 52°36' E 003°29'612.8
2018-May-11 08:30N 52°40' E 003°35'713.1
2018-May-11 08:00N 52°46' E 003°42'913.3
2018-May-11 07:21N 52°52' E 003°51'613.4
2018-May-11 06:56N 52°57' E 003°57'813.4
2018-May-11 06:22N 53°02' E 004°06'813.4
2018-May-11 05:44N 53°07' E 004°17'15612.4
2018-May-10 17:09N 55°25' E 006°24'412.1
2018-May-10 16:48N 55°29' E 006°28'412.2
2018-May-10 16:30N 55°32' E 006°31'612.3
2018-May-10 16:00N 55°37' E 006°37'712.3
2018-May-10 15:24N 55°43' E 006°44'612.3
2018-May-10 14:54N 55°49' E 006°49'14911.7
2018-May-10 02:12N 57°41' E 009°48'312.4
2018-May-10 01:58N 57°42' E 009°53'612.3
2018-May-10 01:29N 57°44' E 010°03'612.5
2018-May-10 01:00N 57°45' E 010°14'612.0
2018-May-10 00:30N 57°46' E 010°25'611.8
2018-May-10 00:00N 57°47' E 010°36'611.9
2018-May-09 23:30N 57°47' E 010°48'612.7
2018-May-09 23:00N 57°43' E 010°56'713.0
2018-May-09 22:30N 57°38' E 011°05'713.1
2018-May-09 22:00N 57°34' E 011°14'713.1
2018-May-09 21:30N 57°29' E 011°23'612.7
2018-May-09 21:00N 57°24' E 011°28'713.5
2018-May-09 20:30N 57°17' E 011°32'713.8
2018-May-09 20:00N 57°11' E 011°37'713.6
2018-May-09 19:30N 57°04' E 011°41'713.7
2018-May-09 19:00N 56°58' E 011°45'713.4
2018-May-09 18:30N 56°52' E 011°49'712.8
2018-May-09 18:00N 56°45' E 011°53'8811.6
2018-May-09 10:24N 55°22' E 011°02'613.3
2018-May-09 09:55N 55°16' E 011°05'512.0
2018-May-09 09:30N 55°11' E 011°04'713.1
2018-May-09 09:00N 55°04' E 011°02'612.2
2018-May-09 08:30N 54°58' E 011°00'611.8
2018-May-09 08:00N 54°54' E 010°54'612.4
2018-May-09 07:30N 54°48' E 010°52'611.6
2018-May-09 07:00N 54°42' E 010°54'713.0
2018-May-09 06:30N 54°38' E 011°03'713.7
2018-May-09 06:00N 54°35' E 011°13'713.7
2018-May-09 05:30N 54°32' E 011°24'713.6
2018-May-09 05:00N 54°29' E 011°35'713.2
2018-May-09 04:30N 54°26' E 011°45'612.9
2018-May-09 04:00N 54°26' E 011°56'612.6
2018-May-09 03:30N 54°26' E 012°07'611.3
2018-May-09 03:00N 54°30' E 012°13'612.6
2018-May-09 02:30N 54°36' E 012°17'612.7
2018-May-09 02:00N 54°40' E 012°25'612.6
2018-May-09 01:30N 54°43' E 012°34'612.5
2018-May-09 01:00N 54°47' E 012°43'612.7
2018-May-09 00:30N 54°49' E 012°54'1113.0
2018-May-08 23:39N 54°53' E 013°12'213.0
2018-May-08 23:30N 54°54' E 013°15'612.7
2018-May-08 22:59N 54°56' E 013°26'712.4
2018-May-08 22:27N 54°58' E 013°37'712.6
2018-May-08 21:55N 55°00' E 013°48'512.9
2018-May-08 21:30N 55°02' E 013°57'612.6
2018-May-08 21:00N 55°05' E 014°06'712.9
2018-May-08 20:29N 55°11' E 014°13'613.0
2018-May-08 20:00N 55°15' E 014°20'713.0
2018-May-08 19:30N 55°20' E 014°28'612.9
2018-May-08 19:00N 55°25' E 014°35'612.7
2018-May-08 18:30N 55°26' E 014°46'612.9
2018-May-08 18:00N 55°26' E 014°58'713.1
2018-May-08 17:30N 55°27' E 015°09'713.3
2018-May-08 17:00N 55°27' E 015°21'713.2
2018-May-08 16:31N 55°28' E 015°32'612.9
2018-May-08 16:00N 55°28' E 015°44'612.9
2018-May-08 15:30N 55°28' E 015°55'612.9
2018-May-08 15:00N 55°29' E 016°07'812.9
2018-May-08 14:25N 55°29' E 016°20'512.8
2018-May-08 14:00N 55°30' E 016°29'612.7
2018-May-08 13:30N 55°30' E 016°40'612.6
2018-May-08 13:00N 55°30' E 016°52'712.7
2018-May-08 12:29N 55°31' E 017°03'612.7
2018-May-08 12:00N 55°31' E 017°14'1512.7
2018-May-08 10:48N 55°32' E 017°41'712.7
2018-May-08 10:14N 55°33' E 017°54'312.6
2018-May-08 10:00N 55°34' E 017°59'712.7
2018-May-08 09:29N 55°34' E 018°10'612.7
2018-May-08 09:01N 55°35' E 018°21'712.8
2018-May-08 08:30N 55°36' E 018°32'612.6
2018-May-08 08:00N 55°36' E 018°43'612.7
2018-May-08 07:30N 55°37' E 018°55'612.7
2018-May-08 06:59N 55°38' E 019°06'612.8
2018-May-08 06:30N 55°38' E 019°17'612.8
2018-May-08 06:00N 55°39' E 019°28'612.9
2018-May-08 05:30N 55°40' E 019°40'612.9
2018-May-08 05:00N 55°40' E 019°51'712.9
2018-May-08 04:30N 55°41' E 020°03'612.8
2018-May-08 04:00N 55°42' E 020°14'712.7
2018-May-08 03:30N 55°43' E 020°25'612.8
2018-May-08 03:00N 55°43' E 020°36'612.7
2018-May-08 02:30N 55°44' E 020°47'612.2
2018-May-08 02:00N 55°44' E 020°58'7 0.3
2018-May-07 02:24N 55°40' E 021°09'0 0.0
2018-May-07 01:59N 55°40' E 021°09'  
Track history (hours):
 
Tides and Currents Weather Stations Pressure Air Temp Water Temp Dewpoint Dewpoint Depression Visibility Wind Speed Wind Dir Waves Ship Positions

Manta Hatice

Last reported at 2018-May-16 21:37 UTC. Time now 2018-May-21 09:13 UTC.
Position N 35°56' W 025°51'.

Length 175 m; draft 9.7 m.

Type: Cargo ship. MMSI: 538006176.

Date/timePositionNaut miles runAvg speedWind from/ knotsBaromVisibWave heightAir tempDewpointWater temp
2018-May-16 21:37N 35°56' W 025°51'113.9
2018-May-16 21:30N 35°57' W 025°50'714.0
2018-May-16 21:00N 36°03' W 025°45'713.9
2018-May-16 20:30N 36°08' W 025°40'714.3
2018-May-16 20:00N 36°14' W 025°34'714.3
2018-May-16 19:30N 36°20' W 025°29'714.4
2018-May-16 19:00N 36°25' W 025°24'714.3
2018-May-16 18:30N 36°31' W 025°18'714.5
2018-May-16 18:00N 36°37' W 025°13'714.3
2018-May-16 17:30N 36°43' W 025°07'714.2
2018-May-16 17:00N 36°48' W 025°02'714.4
2018-May-16 16:30N 36°54' W 024°56'714.2
2018-May-16 16:00N 36°59' W 024°51'714.3
2018-May-16 15:30N 37°04' W 024°45'714.3
2018-May-16 15:00N 37°10' W 024°39'713.8
2018-May-16 14:30N 37°15' W 024°33'713.5
2018-May-16 14:00N 37°20' W 024°27'612.9
2018-May-16 13:31N 37°24' W 024°21'612.6
2018-May-16 13:00N 37°29' W 024°16'612.9
2018-May-16 12:30N 37°34' W 024°10'612.6
2018-May-16 12:01N 37°38' W 024°05'612.8
2018-May-16 11:30N 37°43' W 023°59'713.1
2018-May-16 11:00N 37°48' W 023°53'713.2
2018-May-16 10:30N 37°52' W 023°47'  
2018-May-12 11:50N 49°48' W 003°29'512.3
2018-May-12 11:28N 49°50' W 003°23'612.7
2018-May-12 11:00N 49°53' W 003°15'612.9
2018-May-12 10:30N 49°56' W 003°07'613.0
2018-May-12 10:00N 49°60' W 002°58'712.7
2018-May-12 09:28N 50°02' W 002°48'7710.5
2018-May-12 02:08N 50°23' W 000°52'213.1
2018-May-12 02:00N 50°23' W 000°49'813.3
2018-May-12 01:26N 50°25' W 000°38'713.4
2018-May-12 00:53N 50°27' W 000°27'513.6
2018-May-12 00:30N 50°29' W 000°19'713.4
2018-May-12 00:00N 50°31' W 000°08'713.3
2018-May-11 23:30N 50°32' E 000°02'713.2
2018-May-11 23:00N 50°34' E 000°12'613.0
2018-May-11 22:30N 50°36' E 000°22'612.6
2018-May-11 22:00N 50°38' E 000°31'612.2
2018-May-11 21:30N 50°41' E 000°40'612.2
2018-May-11 21:00N 50°44' E 000°47'611.9
2018-May-11 20:30N 50°47' E 000°55'611.8
2018-May-11 20:00N 50°51' E 001°03'611.8
2018-May-11 19:30N 50°55' E 001°10'612.0
2018-May-11 19:00N 50°59' E 001°17'612.6
2018-May-11 18:30N 51°03' E 001°25'714.2
2018-May-11 18:00N 51°07' E 001°33'714.7
2018-May-11 17:30N 51°12' E 001°42'714.7
2018-May-11 17:00N 51°18' E 001°50'714.6
2018-May-11 16:30N 51°24' E 001°57'714.1
2018-May-11 16:01N 51°29' E 002°03'713.6
2018-May-11 15:30N 51°35' E 002°10'713.3
2018-May-11 15:00N 51°40' E 002°17'612.9
2018-May-11 14:30N 51°45' E 002°23'612.5
2018-May-11 14:00N 51°50' E 002°30'712.2
2018-May-11 13:27N 51°55' E 002°37'711.8
2018-May-11 12:52N 52°00' E 002°44'411.5
2018-May-11 12:29N 52°04' E 002°48'511.4
2018-May-11 12:00N 52°08' E 002°54'611.2
2018-May-11 11:28N 52°13' E 002°60'611.2
2018-May-11 10:56N 52°17' E 003°06'511.4
2018-May-11 10:28N 52°22' E 003°11'611.7
2018-May-11 09:58N 52°26' E 003°17'611.9
2018-May-11 09:29N 52°31' E 003°23'612.4
2018-May-11 09:00N 52°36' E 003°29'612.8
2018-May-11 08:30N 52°40' E 003°35'713.1
2018-May-11 08:00N 52°46' E 003°42'913.3
2018-May-11 07:21N 52°52' E 003°51'613.4
2018-May-11 06:56N 52°57' E 003°57'813.4
2018-May-11 06:22N 53°02' E 004°06'813.4
2018-May-11 05:44N 53°07' E 004°17'15612.4
2018-May-10 17:09N 55°25' E 006°24'412.1
2018-May-10 16:48N 55°29' E 006°28'412.2
2018-May-10 16:30N 55°32' E 006°31'612.3
2018-May-10 16:00N 55°37' E 006°37'712.3
2018-May-10 15:24N 55°43' E 006°44'612.3
2018-May-10 14:54N 55°49' E 006°49'14911.7
2018-May-10 02:12N 57°41' E 009°48'312.4
2018-May-10 01:58N 57°42' E 009°53'612.3
2018-May-10 01:29N 57°44' E 010°03'612.5
2018-May-10 01:00N 57°45' E 010°14'612.0
2018-May-10 00:30N 57°46' E 010°25'611.8
2018-May-10 00:00N 57°47' E 010°36'611.9
2018-May-09 23:30N 57°47' E 010°48'612.7
2018-May-09 23:00N 57°43' E 010°56'713.0
2018-May-09 22:30N 57°38' E 011°05'713.1
2018-May-09 22:00N 57°34' E 011°14'713.1
2018-May-09 21:30N 57°29' E 011°23'612.7
2018-May-09 21:00N 57°24' E 011°28'713.5
2018-May-09 20:30N 57°17' E 011°32'713.8
2018-May-09 20:00N 57°11' E 011°37'713.6
2018-May-09 19:30N 57°04' E 011°41'713.7
2018-May-09 19:00N 56°58' E 011°45'713.4
2018-May-09 18:30N 56°52' E 011°49'712.8
2018-May-09 18:00N 56°45' E 011°53'8811.6
2018-May-09 10:24N 55°22' E 011°02'613.3
2018-May-09 09:55N 55°16' E 011°05'512.0
2018-May-09 09:30N 55°11' E 011°04'713.1
2018-May-09 09:00N 55°04' E 011°02'612.2
2018-May-09 08:30N 54°58' E 011°00'611.8
2018-May-09 08:00N 54°54' E 010°54'612.4
2018-May-09 07:30N 54°48' E 010°52'611.6
2018-May-09 07:00N 54°42' E 010°54'713.0
2018-May-09 06:30N 54°38' E 011°03'713.7
2018-May-09 06:00N 54°35' E 011°13'713.7
2018-May-09 05:30N 54°32' E 011°24'713.6
2018-May-09 05:00N 54°29' E 011°35'713.2
2018-May-09 04:30N 54°26' E 011°45'612.9
2018-May-09 04:00N 54°26' E 011°56'612.6
2018-May-09 03:30N 54°26' E 012°07'611.3
2018-May-09 03:00N 54°30' E 012°13'612.6
2018-May-09 02:30N 54°36' E 012°17'612.7
2018-May-09 02:00N 54°40' E 012°25'612.6
2018-May-09 01:30N 54°43' E 012°34'612.5
2018-May-09 01:00N 54°47' E 012°43'612.7
2018-May-09 00:30N 54°49' E 012°54'1113.0
2018-May-08 23:39N 54°53' E 013°12'213.0
2018-May-08 23:30N 54°54' E 013°15'612.7
2018-May-08 22:59N 54°56' E 013°26'712.4
2018-May-08 22:27N 54°58' E 013°37'712.6
2018-May-08 21:55N 55°00' E 013°48'512.9
2018-May-08 21:30N 55°02' E 013°57'612.6
2018-May-08 21:00N 55°05' E 014°06'712.9
2018-May-08 20:29N 55°11' E 014°13'613.0
2018-May-08 20:00N 55°15' E 014°20'713.0
2018-May-08 19:30N 55°20' E 014°28'612.9
2018-May-08 19:00N 55°25' E 014°35'612.7
2018-May-08 18:30N 55°26' E 014°46'612.9
2018-May-08 18:00N 55°26' E 014°58'713.1
2018-May-08 17:30N 55°27' E 015°09'713.3
2018-May-08 17:00N 55°27' E 015°21'713.2
2018-May-08 16:31N 55°28' E 015°32'612.9
2018-May-08 16:00N 55°28' E 015°44'612.9
2018-May-08 15:30N 55°28' E 015°55'612.9
2018-May-08 15:00N 55°29' E 016°07'812.9
2018-May-08 14:25N 55°29' E 016°20'512.8
2018-May-08 14:00N 55°30' E 016°29'612.7
2018-May-08 13:30N 55°30' E 016°40'612.6
2018-May-08 13:00N 55°30' E 016°52'712.7
2018-May-08 12:29N 55°31' E 017°03'612.7
2018-May-08 12:00N 55°31' E 017°14'1512.7
2018-May-08 10:48N 55°32' E 017°41'712.7
2018-May-08 10:14N 55°33' E 017°54'312.6
2018-May-08 10:00N 55°34' E 017°59'712.7
2018-May-08 09:29N 55°34' E 018°10'612.7
2018-May-08 09:01N 55°35' E 018°21'712.8
2018-May-08 08:30N 55°36' E 018°32'612.6
2018-May-08 08:00N 55°36' E 018°43'612.7
2018-May-08 07:30N 55°37' E 018°55'612.7
2018-May-08 06:59N 55°38' E 019°06'612.8
2018-May-08 06:30N 55°38' E 019°17'612.8
2018-May-08 06:00N 55°39' E 019°28'612.9
2018-May-08 05:30N 55°40' E 019°40'612.9
2018-May-08 05:00N 55°40' E 019°51'712.9
2018-May-08 04:30N 55°41' E 020°03'612.8
2018-May-08 04:00N 55°42' E 020°14'712.7
2018-May-08 03:30N 55°43' E 020°25'612.8
2018-May-08 03:00N 55°43' E 020°36'612.7
2018-May-08 02:30N 55°44' E 020°47'612.2
2018-May-08 02:00N 55°44' E 020°58'7 0.3
2018-May-07 02:24N 55°40' E 021°09'0 0.0
2018-May-07 01:59N 55°40' E 021°09'  

Dump ship's entire track history